sensor_id;sensor_type;location;lat;lon;timestamp;P1;durP1;ratioP1;P2;durP2;ratioP2
75025;SDS011;63591;50.080;8.286;2022-12-18T00:00:44;40.78;;;18.52;;
75025;SDS011;63591;50.080;8.286;2022-12-18T00:03:11;40.50;;;18.73;;
75025;SDS011;63591;50.080;8.286;2022-12-18T00:05:45;40.65;;;18.20;;
75025;SDS011;63591;50.080;8.286;2022-12-18T00:08:11;39.53;;;19.08;;
75025;SDS011;63591;50.080;8.286;2022-12-18T00:10:36;39.37;;;18.50;;
75025;SDS011;63591;50.080;8.286;2022-12-18T00:13:02;38.43;;;18.30;;
75025;SDS011;63591;50.080;8.286;2022-12-18T00:15:27;39.00;;;17.60;;
75025;SDS011;63591;50.080;8.286;2022-12-18T00:17:52;38.90;;;18.13;;
75025;SDS011;63591;50.080;8.286;2022-12-18T00:20:17;35.60;;;16.90;;
75025;SDS011;63591;50.080;8.286;2022-12-18T00:22:50;34.88;;;17.38;;
75025;SDS011;63591;50.080;8.286;2022-12-18T00:25:15;38.93;;;17.97;;
75025;SDS011;63591;50.080;8.286;2022-12-18T00:27:41;37.47;;;16.70;;
75025;SDS011;63591;50.080;8.286;2022-12-18T00:30:06;37.60;;;17.87;;
75025;SDS011;63591;50.080;8.286;2022-12-18T00:32:32;35.28;;;17.70;;
75025;SDS011;63591;50.080;8.286;2022-12-18T00:34:57;36.67;;;17.80;;
75025;SDS011;63591;50.080;8.286;2022-12-18T00:37:22;37.60;;;18.20;;
75025;SDS011;63591;50.080;8.286;2022-12-18T00:39:48;37.67;;;17.83;;
75025;SDS011;63591;50.080;8.286;2022-12-18T00:42:14;36.33;;;16.55;;
75025;SDS011;63591;50.080;8.286;2022-12-18T00:44:58;36.53;;;16.92;;
75025;SDS011;63591;50.080;8.286;2022-12-18T00:47:23;38.83;;;16.87;;
75025;SDS011;63591;50.080;8.286;2022-12-18T00:49:49;35.93;;;17.43;;
75025;SDS011;63591;50.080;8.286;2022-12-18T00:52:14;31.90;;;16.13;;
75025;SDS011;63591;50.080;8.286;2022-12-18T00:54:39;35.47;;;16.40;;
75025;SDS011;63591;50.080;8.286;2022-12-18T00:57:04;40.37;;;18.20;;
75025;SDS011;63591;50.080;8.286;2022-12-18T00:59:30;36.00;;;17.60;;
75025;SDS011;63591;50.080;8.286;2022-12-18T01:01:55;36.27;;;17.27;;
75025;SDS011;63591;50.080;8.286;2022-12-18T01:04:20;34.73;;;16.23;;
75025;SDS011;63591;50.080;8.286;2022-12-18T01:06:46;36.13;;;17.05;;
75025;SDS011;63591;50.080;8.286;2022-12-18T01:09:11;35.97;;;17.20;;
75025;SDS011;63591;50.080;8.286;2022-12-18T01:11:36;35.97;;;16.83;;
75025;SDS011;63591;50.080;8.286;2022-12-18T01:14:02;36.03;;;16.80;;
75025;SDS011;63591;50.080;8.286;2022-12-18T01:16:27;37.05;;;17.60;;
75025;SDS011;63591;50.080;8.286;2022-12-18T01:18:53;35.15;;;17.23;;
75025;SDS011;63591;50.080;8.286;2022-12-18T01:21:19;33.80;;;15.82;;
75025;SDS011;63591;50.080;8.286;2022-12-18T01:23:45;35.53;;;16.37;;
75025;SDS011;63591;50.080;8.286;2022-12-18T01:26:12;35.95;;;16.83;;
75025;SDS011;63591;50.080;8.286;2022-12-18T01:28:39;34.03;;;15.88;;
75025;SDS011;63591;50.080;8.286;2022-12-18T01:31:24;33.50;;;16.40;;
75025;SDS011;63591;50.080;8.286;2022-12-18T01:33:55;35.95;;;16.17;;
75025;SDS011;63591;50.080;8.286;2022-12-18T01:36:23;33.17;;;16.92;;
75025;SDS011;63591;50.080;8.286;2022-12-18T01:38:50;35.03;;;16.45;;
75025;SDS011;63591;50.080;8.286;2022-12-18T01:41:18;34.20;;;16.30;;
75025;SDS011;63591;50.080;8.286;2022-12-18T01:43:47;34.72;;;16.35;;
75025;SDS011;63591;50.080;8.286;2022-12-18T01:46:22;32.33;;;16.05;;
75025;SDS011;63591;50.080;8.286;2022-12-18T01:48:52;35.80;;;16.77;;
75025;SDS011;63591;50.080;8.286;2022-12-18T01:51:21;34.33;;;16.45;;
75025;SDS011;63591;50.080;8.286;2022-12-18T01:53:48;32.50;;;16.10;;
75025;SDS011;63591;50.080;8.286;2022-12-18T01:56:15;34.67;;;16.50;;
75025;SDS011;63591;50.080;8.286;2022-12-18T01:58:46;30.27;;;16.00;;
75025;SDS011;63591;50.080;8.286;2022-12-18T02:01:19;32.08;;;16.00;;
75025;SDS011;63591;50.080;8.286;2022-12-18T02:03:47;31.85;;;15.88;;
75025;SDS011;63591;50.080;8.286;2022-12-18T02:06:15;34.53;;;16.00;;
75025;SDS011;63591;50.080;8.286;2022-12-18T02:14:17;28.73;;;15.07;;
75025;SDS011;63591;50.080;8.286;2022-12-18T02:16:57;28.25;;;14.63;;
75025;SDS011;63591;50.080;8.286;2022-12-18T02:24:53;30.42;;;15.05;;
75025;SDS011;63591;50.080;8.286;2022-12-18T02:27:32;29.20;;;14.63;;
75025;SDS011;63591;50.080;8.286;2022-12-18T02:30:01;28.88;;;14.15;;
75025;SDS011;63591;50.080;8.286;2022-12-18T02:32:30;28.83;;;14.38;;
75025;SDS011;63591;50.080;8.286;2022-12-18T02:34:58;27.73;;;13.85;;
75025;SDS011;63591;50.080;8.286;2022-12-18T02:37:27;25.10;;;13.43;;
75025;SDS011;63591;50.080;8.286;2022-12-18T02:39:55;25.17;;;13.23;;
75025;SDS011;63591;50.080;8.286;2022-12-18T02:42:23;28.60;;;14.05;;
75025;SDS011;63591;50.080;8.286;2022-12-18T02:44:50;27.27;;;14.05;;
75025;SDS011;63591;50.080;8.286;2022-12-18T02:47:18;24.65;;;12.93;;
75025;SDS011;63591;50.080;8.286;2022-12-18T03:06:06;23.50;;;12.50;;
75025;SDS011;63591;50.080;8.286;2022-12-18T03:08:19;22.65;;;12.52;;
75025;SDS011;63591;50.080;8.286;2022-12-18T03:10:53;23.08;;;12.45;;
75025;SDS011;63591;50.080;8.286;2022-12-18T03:13:34;20.85;;;11.75;;
75025;SDS011;63591;50.080;8.286;2022-12-18T03:16:03;22.38;;;12.43;;
75025;SDS011;63591;50.080;8.286;2022-12-18T03:18:34;21.40;;;12.30;;
75025;SDS011;63591;50.080;8.286;2022-12-18T03:21:04;22.98;;;12.15;;
75025;SDS011;63591;50.080;8.286;2022-12-18T03:23:33;22.77;;;12.32;;
75025;SDS011;63591;50.080;8.286;2022-12-18T03:26:05;22.35;;;12.32;;
75025;SDS011;63591;50.080;8.286;2022-12-18T03:28:35;24.40;;;12.40;;
75025;SDS011;63591;50.080;8.286;2022-12-18T03:31:05;19.57;;;11.57;;
75025;SDS011;63591;50.080;8.286;2022-12-18T03:33:37;22.75;;;12.05;;
75025;SDS011;63591;50.080;8.286;2022-12-18T03:36:24;23.25;;;12.07;;
75025;SDS011;63591;50.080;8.286;2022-12-18T03:38:49;20.60;;;11.43;;
75025;SDS011;63591;50.080;8.286;2022-12-18T03:41:17;21.80;;;12.00;;
75025;SDS011;63591;50.080;8.286;2022-12-18T03:44:21;20.42;;;11.23;;
75025;SDS011;63591;50.080;8.286;2022-12-18T03:49:47;20.37;;;11.93;;
75025;SDS011;63591;50.080;8.286;2022-12-18T03:52:29;21.95;;;11.50;;
75025;SDS011;63591;50.080;8.286;2022-12-18T03:54:59;22.15;;;12.20;;
75025;SDS011;63591;50.080;8.286;2022-12-18T03:57:27;21.92;;;11.20;;
75025;SDS011;63591;50.080;8.286;2022-12-18T03:59:56;21.95;;;11.55;;
75025;SDS011;63591;50.080;8.286;2022-12-18T04:02:24;21.60;;;11.87;;
75025;SDS011;63591;50.080;8.286;2022-12-18T04:04:51;22.70;;;11.82;;
75025;SDS011;63591;50.080;8.286;2022-12-18T04:07:18;22.63;;;11.77;;
75025;SDS011;63591;50.080;8.286;2022-12-18T04:09:46;21.15;;;11.40;;
75025;SDS011;63591;50.080;8.286;2022-12-18T04:12:13;21.10;;;11.75;;
75025;SDS011;63591;50.080;8.286;2022-12-18T04:14:38;21.90;;;11.37;;
75025;SDS011;63591;50.080;8.286;2022-12-18T04:17:04;20.53;;;10.93;;
75025;SDS011;63591;50.080;8.286;2022-12-18T04:19:29;20.53;;;11.53;;
75025;SDS011;63591;50.080;8.286;2022-12-18T04:21:54;21.83;;;12.20;;
75025;SDS011;63591;50.080;8.286;2022-12-18T04:24:20;21.73;;;12.20;;
75025;SDS011;63591;50.080;8.286;2022-12-18T04:26:45;22.37;;;12.10;;
75025;SDS011;63591;50.080;8.286;2022-12-18T04:29:11;20.93;;;11.03;;
75025;SDS011;63591;50.080;8.286;2022-12-18T04:31:36;21.05;;;11.80;;
75025;SDS011;63591;50.080;8.286;2022-12-18T04:34:02;20.20;;;11.10;;
75025;SDS011;63591;50.080;8.286;2022-12-18T04:36:28;21.08;;;11.70;;
75025;SDS011;63591;50.080;8.286;2022-12-18T04:38:53;21.20;;;11.50;;
75025;SDS011;63591;50.080;8.286;2022-12-18T04:41:19;21.40;;;11.30;;
75025;SDS011;63591;50.080;8.286;2022-12-18T04:43:44;19.33;;;10.90;;
75025;SDS011;63591;50.080;8.286;2022-12-18T04:46:09;20.50;;;10.80;;
75025;SDS011;63591;50.080;8.286;2022-12-18T04:48:34;19.23;;;10.63;;
75025;SDS011;63591;50.080;8.286;2022-12-18T04:51:00;22.77;;;11.45;;
75025;SDS011;63591;50.080;8.286;2022-12-18T04:53:26;19.77;;;10.45;;
75025;SDS011;63591;50.080;8.286;2022-12-18T04:56:01;21.05;;;10.85;;
75025;SDS011;63591;50.080;8.286;2022-12-18T04:58:28;19.45;;;10.52;;
75025;SDS011;63591;50.080;8.286;2022-12-18T05:00:54;20.80;;;10.93;;
75025;SDS011;63591;50.080;8.286;2022-12-18T05:03:19;22.57;;;11.47;;
75025;SDS011;63591;50.080;8.286;2022-12-18T05:05:44;20.30;;;11.10;;
75025;SDS011;63591;50.080;8.286;2022-12-18T05:08:10;20.57;;;11.17;;
75025;SDS011;63591;50.080;8.286;2022-12-18T05:10:35;20.03;;;10.70;;
75025;SDS011;63591;50.080;8.286;2022-12-18T05:13:00;21.07;;;11.10;;
75025;SDS011;63591;50.080;8.286;2022-12-18T05:15:29;20.25;;;11.40;;
75025;SDS011;63591;50.080;8.286;2022-12-18T05:17:56;21.03;;;11.03;;
75025;SDS011;63591;50.080;8.286;2022-12-18T05:20:22;20.15;;;10.70;;
75025;SDS011;63591;50.080;8.286;2022-12-18T05:22:48;22.20;;;11.30;;
75025;SDS011;63591;50.080;8.286;2022-12-18T05:25:13;20.47;;;11.43;;
75025;SDS011;63591;50.080;8.286;2022-12-18T05:27:38;21.03;;;11.10;;
75025;SDS011;63591;50.080;8.286;2022-12-18T05:30:04;20.80;;;11.10;;
75025;SDS011;63591;50.080;8.286;2022-12-18T05:32:30;19.98;;;11.07;;
75025;SDS011;63591;50.080;8.286;2022-12-18T05:34:55;21.63;;;11.70;;
75025;SDS011;63591;50.080;8.286;2022-12-18T05:37:22;22.15;;;11.23;;
75025;SDS011;63591;50.080;8.286;2022-12-18T05:39:47;23.17;;;12.00;;
75025;SDS011;63591;50.080;8.286;2022-12-18T05:42:13;21.40;;;11.10;;
75025;SDS011;63591;50.080;8.286;2022-12-18T05:44:38;20.07;;;11.53;;
75025;SDS011;63591;50.080;8.286;2022-12-18T05:47:03;21.80;;;12.20;;
75025;SDS011;63591;50.080;8.286;2022-12-18T05:49:29;22.70;;;11.32;;
75025;SDS011;63591;50.080;8.286;2022-12-18T05:51:54;22.90;;;12.47;;
75025;SDS011;63591;50.080;8.286;2022-12-18T05:54:19;20.23;;;11.23;;
75025;SDS011;63591;50.080;8.286;2022-12-18T05:56:44;21.60;;;11.20;;
75025;SDS011;63591;50.080;8.286;2022-12-18T05:59:10;22.73;;;12.07;;
75025;SDS011;63591;50.080;8.286;2022-12-18T06:01:35;21.20;;;11.60;;
75025;SDS011;63591;50.080;8.286;2022-12-18T06:04:01;22.87;;;11.53;;
75025;SDS011;63591;50.080;8.286;2022-12-18T06:06:27;21.00;;;11.70;;
75025;SDS011;63591;50.080;8.286;2022-12-18T06:08:53;20.05;;;10.80;;
75025;SDS011;63591;50.080;8.286;2022-12-18T06:11:22;21.60;;;11.38;;
75025;SDS011;63591;50.080;8.286;2022-12-18T06:13:49;21.38;;;11.50;;
75025;SDS011;63591;50.080;8.286;2022-12-18T06:16:16;20.45;;;10.65;;
75025;SDS011;63591;50.080;8.286;2022-12-18T06:18:41;21.48;;;12.07;;
75025;SDS011;63591;50.080;8.286;2022-12-18T06:21:06;20.30;;;11.03;;
75025;SDS011;63591;50.080;8.286;2022-12-18T06:23:32;20.53;;;11.10;;
75025;SDS011;63591;50.080;8.286;2022-12-18T06:25:57;20.53;;;11.37;;
75025;SDS011;63591;50.080;8.286;2022-12-18T06:28:23;19.30;;;10.17;;
75025;SDS011;63591;50.080;8.286;2022-12-18T06:30:48;19.83;;;10.70;;
75025;SDS011;63591;50.080;8.286;2022-12-18T06:33:14;20.30;;;10.93;;
75025;SDS011;63591;50.080;8.286;2022-12-18T06:35:40;21.25;;;10.73;;
75025;SDS011;63591;50.080;8.286;2022-12-18T06:38:06;20.83;;;11.10;;
75025;SDS011;63591;50.080;8.286;2022-12-18T06:40:32;21.57;;;10.97;;
75025;SDS011;63591;50.080;8.286;2022-12-18T06:42:58;19.27;;;10.82;;
75025;SDS011;63591;50.080;8.286;2022-12-18T06:45:23;21.90;;;11.10;;
75025;SDS011;63591;50.080;8.286;2022-12-18T06:47:49;19.83;;;10.73;;
75025;SDS011;63591;50.080;8.286;2022-12-18T06:50:14;18.70;;;10.73;;
75025;SDS011;63591;50.080;8.286;2022-12-18T06:52:40;20.20;;;10.60;;
75025;SDS011;63591;50.080;8.286;2022-12-18T06:55:05;21.10;;;10.87;;
75025;SDS011;63591;50.080;8.286;2022-12-18T06:57:31;21.42;;;11.32;;
75025;SDS011;63591;50.080;8.286;2022-12-18T06:59:57;20.07;;;10.67;;
75025;SDS011;63591;50.080;8.286;2022-12-18T07:02:22;20.73;;;10.67;;
75025;SDS011;63591;50.080;8.286;2022-12-18T07:04:47;20.47;;;10.63;;
75025;SDS011;63591;50.080;8.286;2022-12-18T07:07:13;20.13;;;11.20;;
75025;SDS011;63591;50.080;8.286;2022-12-18T07:09:38;20.40;;;10.70;;
75025;SDS011;63591;50.080;8.286;2022-12-18T07:12:03;19.60;;;10.60;;
75025;SDS011;63591;50.080;8.286;2022-12-18T07:14:29;20.52;;;10.80;;
75025;SDS011;63591;50.080;8.286;2022-12-18T07:16:55;21.33;;;11.30;;
75025;SDS011;63591;50.080;8.286;2022-12-18T07:19:23;19.63;;;10.40;;
75025;SDS011;63591;50.080;8.286;2022-12-18T07:21:49;18.08;;;9.95;;
75025;SDS011;63591;50.080;8.286;2022-12-18T07:24:15;20.33;;;10.77;;
75025;SDS011;63591;50.080;8.286;2022-12-18T07:26:40;20.03;;;10.43;;
75025;SDS011;63591;50.080;8.286;2022-12-18T07:29:05;23.10;;;11.27;;
75025;SDS011;63591;50.080;8.286;2022-12-18T07:31:30;20.00;;;10.57;;
75025;SDS011;63591;50.080;8.286;2022-12-18T07:33:56;19.37;;;10.23;;
75025;SDS011;63591;50.080;8.286;2022-12-18T07:36:21;21.60;;;11.27;;
75025;SDS011;63591;50.080;8.286;2022-12-18T07:38:47;23.52;;;11.88;;
75025;SDS011;63591;50.080;8.286;2022-12-18T07:41:13;22.00;;;11.40;;
75025;SDS011;63591;50.080;8.286;2022-12-18T07:43:39;22.23;;;11.73;;
75025;SDS011;63591;50.080;8.286;2022-12-18T07:46:06;19.23;;;11.52;;
75025;SDS011;63591;50.080;8.286;2022-12-18T07:48:32;22.08;;;11.75;;
75025;SDS011;63591;50.080;8.286;2022-12-18T07:50:58;23.42;;;12.30;;
75025;SDS011;63591;50.080;8.286;2022-12-18T07:53:29;23.05;;;12.50;;
75025;SDS011;63591;50.080;8.286;2022-12-18T07:55:58;21.92;;;12.15;;
75025;SDS011;63591;50.080;8.286;2022-12-18T07:58:25;22.45;;;12.13;;
75025;SDS011;63591;50.080;8.286;2022-12-18T08:00:50;21.27;;;11.87;;
75025;SDS011;63591;50.080;8.286;2022-12-18T08:03:17;22.00;;;12.68;;
75025;SDS011;63591;50.080;8.286;2022-12-18T08:05:42;25.10;;;13.05;;
75025;SDS011;63591;50.080;8.286;2022-12-18T08:08:08;26.73;;;14.10;;
75025;SDS011;63591;50.080;8.286;2022-12-18T08:10:33;24.83;;;13.00;;
75025;SDS011;63591;50.080;8.286;2022-12-18T08:12:58;25.80;;;12.93;;
75025;SDS011;63591;50.080;8.286;2022-12-18T08:15:23;22.97;;;12.50;;
75025;SDS011;63591;50.080;8.286;2022-12-18T08:17:49;24.83;;;12.73;;
75025;SDS011;63591;50.080;8.286;2022-12-18T08:20:14;26.63;;;13.77;;
75025;SDS011;63591;50.080;8.286;2022-12-18T08:22:40;27.35;;;13.52;;
75025;SDS011;63591;50.080;8.286;2022-12-18T08:25:09;39.03;;;17.52;;
75025;SDS011;63591;50.080;8.286;2022-12-18T08:27:35;35.53;;;16.58;;
75025;SDS011;63591;50.080;8.286;2022-12-18T08:30:01;34.13;;;15.52;;
75025;SDS011;63591;50.080;8.286;2022-12-18T08:32:28;33.30;;;15.98;;
75025;SDS011;63591;50.080;8.286;2022-12-18T08:34:53;30.37;;;15.20;;
75025;SDS011;63591;50.080;8.286;2022-12-18T08:37:19;29.80;;;14.90;;
75025;SDS011;63591;50.080;8.286;2022-12-18T08:39:44;28.63;;;14.57;;
75025;SDS011;63591;50.080;8.286;2022-12-18T08:42:09;27.93;;;14.47;;
75025;SDS011;63591;50.080;8.286;2022-12-18T08:44:53;28.58;;;14.13;;
75025;SDS011;63591;50.080;8.286;2022-12-18T08:47:19;28.37;;;13.57;;
75025;SDS011;63591;50.080;8.286;2022-12-18T08:49:44;26.40;;;13.37;;
75025;SDS011;63591;50.080;8.286;2022-12-18T08:52:09;26.20;;;12.97;;
75025;SDS011;63591;50.080;8.286;2022-12-18T08:54:34;25.80;;;13.73;;
75025;SDS011;63591;50.080;8.286;2022-12-18T08:57:00;23.33;;;12.63;;
75025;SDS011;63591;50.080;8.286;2022-12-18T08:59:25;24.70;;;13.40;;
75025;SDS011;63591;50.080;8.286;2022-12-18T09:01:53;23.27;;;12.45;;
75025;SDS011;63591;50.080;8.286;2022-12-18T09:04:19;23.20;;;12.40;;
75025;SDS011;63591;50.080;8.286;2022-12-18T09:06:44;24.80;;;12.60;;
75025;SDS011;63591;50.080;8.286;2022-12-18T09:09:10;22.87;;;12.13;;
75025;SDS011;63591;50.080;8.286;2022-12-18T09:11:36;22.52;;;12.20;;
75025;SDS011;63591;50.080;8.286;2022-12-18T09:14:01;21.33;;;12.00;;
75025;SDS011;63591;50.080;8.286;2022-12-18T09:16:28;23.15;;;12.10;;
75025;SDS011;63591;50.080;8.286;2022-12-18T09:18:54;21.02;;;11.13;;
75025;SDS011;63591;50.080;8.286;2022-12-18T09:21:24;22.80;;;12.20;;
75025;SDS011;63591;50.080;8.286;2022-12-18T09:23:51;21.45;;;11.63;;
75025;SDS011;63591;50.080;8.286;2022-12-18T09:26:17;23.00;;;11.52;;
75025;SDS011;63591;50.080;8.286;2022-12-18T09:28:42;22.10;;;11.60;;
75025;SDS011;63591;50.080;8.286;2022-12-18T09:31:08;20.33;;;10.73;;
75025;SDS011;63591;50.080;8.286;2022-12-18T09:33:35;22.02;;;11.52;;
75025;SDS011;63591;50.080;8.286;2022-12-18T09:36:02;20.42;;;10.85;;
75025;SDS011;63591;50.080;8.286;2022-12-18T09:38:29;21.98;;;11.63;;
75025;SDS011;63591;50.080;8.286;2022-12-18T09:41:16;21.20;;;11.13;;
75025;SDS011;63591;50.080;8.286;2022-12-18T09:43:54;22.50;;;11.35;;
75025;SDS011;63591;50.080;8.286;2022-12-18T09:46:25;22.27;;;11.25;;
75025;SDS011;63591;50.080;8.286;2022-12-18T09:48:54;21.23;;;11.00;;
75025;SDS011;63591;50.080;8.286;2022-12-18T09:51:34;23.13;;;11.57;;
75025;SDS011;63591;50.080;8.286;2022-12-18T09:54:06;22.30;;;11.68;;
75025;SDS011;63591;50.080;8.286;2022-12-18T09:56:38;22.77;;;12.30;;
75025;SDS011;63591;50.080;8.286;2022-12-18T09:59:12;21.83;;;11.77;;
75025;SDS011;63591;50.080;8.286;2022-12-18T10:01:44;25.00;;;12.45;;
75025;SDS011;63591;50.080;8.286;2022-12-18T10:04:09;22.97;;;12.50;;
75025;SDS011;63591;50.080;8.286;2022-12-18T10:06:37;25.13;;;12.63;;
75025;SDS011;63591;50.080;8.286;2022-12-18T10:12:04;23.92;;;12.85;;
75025;SDS011;63591;50.080;8.286;2022-12-18T10:14:41;23.40;;;12.32;;
75025;SDS011;63591;50.080;8.286;2022-12-18T10:17:23;22.92;;;13.10;;
75025;SDS011;63591;50.080;8.286;2022-12-18T10:22:40;24.00;;;12.27;;
75025;SDS011;63591;50.080;8.286;2022-12-18T10:25:20;25.05;;;13.00;;
75025;SDS011;63591;50.080;8.286;2022-12-18T10:27:54;24.10;;;13.35;;
75025;SDS011;63591;50.080;8.286;2022-12-18T10:30:23;25.23;;;12.23;;
75025;SDS011;63591;50.080;8.286;2022-12-18T10:32:49;23.20;;;12.68;;
75025;SDS011;63591;50.080;8.286;2022-12-18T10:35:22;23.98;;;13.13;;
75025;SDS011;63591;50.080;8.286;2022-12-18T10:40:54;25.20;;;13.45;;
75025;SDS011;63591;50.080;8.286;2022-12-18T10:43:22;25.55;;;13.35;;
75025;SDS011;63591;50.080;8.286;2022-12-18T10:48:39;27.70;;;14.07;;
75025;SDS011;63591;50.080;8.286;2022-12-18T10:51:26;26.25;;;14.50;;
75025;SDS011;63591;50.080;8.286;2022-12-18T10:53:53;27.00;;;13.93;;
75025;SDS011;63591;50.080;8.286;2022-12-18T10:56:25;26.95;;;14.23;;
75025;SDS011;63591;50.080;8.286;2022-12-18T10:59:10;27.75;;;14.30;;
75025;SDS011;63591;50.080;8.286;2022-12-18T11:02:23;27.50;;;14.07;;
75025;SDS011;63591;50.080;8.286;2022-12-18T11:04:50;29.58;;;13.85;;
75025;SDS011;63591;50.080;8.286;2022-12-18T11:07:17;26.15;;;13.80;;
75025;SDS011;63591;50.080;8.286;2022-12-18T11:09:42;29.83;;;15.27;;
75025;SDS011;63591;50.080;8.286;2022-12-18T11:12:17;26.33;;;14.40;;
75025;SDS011;63591;50.080;8.286;2022-12-18T11:14:51;26.83;;;14.20;;
75025;SDS011;63591;50.080;8.286;2022-12-18T11:17:21;27.00;;;13.85;;
75025;SDS011;63591;50.080;8.286;2022-12-18T11:19:56;26.35;;;14.18;;
75025;SDS011;63591;50.080;8.286;2022-12-18T11:22:27;27.38;;;14.35;;
75025;SDS011;63591;50.080;8.286;2022-12-18T11:25:04;26.73;;;14.48;;
75025;SDS011;63591;50.080;8.286;2022-12-18T11:27:32;28.00;;;15.27;;
75025;SDS011;63591;50.080;8.286;2022-12-18T11:30:08;26.10;;;14.60;;
75025;SDS011;63591;50.080;8.286;2022-12-18T11:32:49;28.17;;;14.60;;
75025;SDS011;63591;50.080;8.286;2022-12-18T11:35:53;30.88;;;15.52;;
75025;SDS011;63591;50.080;8.286;2022-12-18T11:38:23;28.65;;;15.30;;
75025;SDS011;63591;50.080;8.286;2022-12-18T11:41:02;26.42;;;14.20;;
75025;SDS011;63591;50.080;8.286;2022-12-18T11:44:00;28.95;;;15.65;;
75025;SDS011;63591;50.080;8.286;2022-12-18T11:49:11;30.75;;;15.88;;
75025;SDS011;63591;50.080;8.286;2022-12-18T11:51:47;31.42;;;16.70;;
75025;SDS011;63591;50.080;8.286;2022-12-18T11:54:29;30.33;;;16.33;;
75025;SDS011;63591;50.080;8.286;2022-12-18T11:57:10;30.58;;;15.77;;
75025;SDS011;63591;50.080;8.286;2022-12-18T12:00:01;30.48;;;16.05;;
75025;SDS011;63591;50.080;8.286;2022-12-18T12:05:04;30.60;;;15.80;;
75025;SDS011;63591;50.080;8.286;2022-12-18T12:13:12;31.23;;;16.33;;
75025;SDS011;63591;50.080;8.286;2022-12-18T12:15:59;34.60;;;17.13;;
75025;SDS011;63591;50.080;8.286;2022-12-18T12:24:02;31.65;;;16.95;;
75025;SDS011;63591;50.080;8.286;2022-12-18T12:26:34;32.25;;;16.85;;
75025;SDS011;63591;50.080;8.286;2022-12-18T12:29:19;31.75;;;16.15;;
75025;SDS011;63591;50.080;8.286;2022-12-18T12:34:59;33.28;;;16.60;;
75025;SDS011;63591;50.080;8.286;2022-12-18T12:40:00;33.10;;;16.63;;
75025;SDS011;63591;50.080;8.286;2022-12-18T12:48:43;30.92;;;15.90;;
75025;SDS011;63591;50.080;8.286;2022-12-18T12:51:14;30.85;;;16.25;;
75025;SDS011;63591;50.080;8.286;2022-12-18T12:53:43;33.33;;;16.40;;
75025;SDS011;63591;50.080;8.286;2022-12-18T12:56:09;32.78;;;16.02;;
75025;SDS011;63591;50.080;8.286;2022-12-18T13:10:10;31.23;;;15.60;;
75025;SDS011;63591;50.080;8.286;2022-12-18T13:12:59;32.15;;;16.30;;
75025;SDS011;63591;50.080;8.286;2022-12-18T13:18:04;34.00;;;16.40;;
75025;SDS011;63591;50.080;8.286;2022-12-18T13:31:10;31.93;;;15.63;;
75025;SDS011;63591;50.080;8.286;2022-12-18T13:33:36;32.28;;;15.57;;
75025;SDS011;63591;50.080;8.286;2022-12-18T13:41:38;31.48;;;15.70;;
75025;SDS011;63591;50.080;8.286;2022-12-18T13:44:38;30.52;;;15.07;;
75025;SDS011;63591;50.080;8.286;2022-12-18T13:46:58;33.30;;;15.93;;
75025;SDS011;63591;50.080;8.286;2022-12-18T13:51:55;33.35;;;15.82;;
75025;SDS011;63591;50.080;8.286;2022-12-18T13:56:58;31.48;;;15.45;;
75025;SDS011;63591;50.080;8.286;2022-12-18T13:59:25;33.22;;;16.17;;
75025;SDS011;63591;50.080;8.286;2022-12-18T14:01:55;31.13;;;15.48;;
75025;SDS011;63591;50.080;8.286;2022-12-18T14:04:26;32.73;;;15.20;;
75025;SDS011;63591;50.080;8.286;2022-12-18T14:07:06;32.05;;;15.07;;
75025;SDS011;63591;50.080;8.286;2022-12-18T14:09:39;33.80;;;15.07;;
75025;SDS011;63591;50.080;8.286;2022-12-18T14:12:12;32.15;;;15.40;;
75025;SDS011;63591;50.080;8.286;2022-12-18T14:15:00;34.15;;;15.32;;
75025;SDS011;63591;50.080;8.286;2022-12-18T14:17:25;32.87;;;15.00;;
75025;SDS011;63591;50.080;8.286;2022-12-18T14:19:51;34.00;;;15.68;;
75025;SDS011;63591;50.080;8.286;2022-12-18T14:22:17;34.00;;;15.43;;
75025;SDS011;63591;50.080;8.286;2022-12-18T14:24:45;32.38;;;14.70;;
75025;SDS011;63591;50.080;8.286;2022-12-18T14:27:22;31.77;;;14.40;;
75025;SDS011;63591;50.080;8.286;2022-12-18T14:29:49;31.15;;;14.68;;
75025;SDS011;63591;50.080;8.286;2022-12-18T14:32:16;31.45;;;14.52;;
75025;SDS011;63591;50.080;8.286;2022-12-18T14:34:43;33.33;;;15.07;;
75025;SDS011;63591;50.080;8.286;2022-12-18T14:37:15;33.10;;;14.63;;
75025;SDS011;63591;50.080;8.286;2022-12-18T14:40:00;33.03;;;15.13;;
75025;SDS011;63591;50.080;8.286;2022-12-18T14:42:30;34.10;;;14.65;;
75025;SDS011;63591;50.080;8.286;2022-12-18T14:47:59;31.33;;;14.70;;
75025;SDS011;63591;50.080;8.286;2022-12-18T14:50:25;33.47;;;15.45;;
75025;SDS011;63591;50.080;8.286;2022-12-18T14:52:51;32.55;;;14.63;;
75025;SDS011;63591;50.080;8.286;2022-12-18T14:55:17;31.07;;;14.50;;
75025;SDS011;63591;50.080;8.286;2022-12-18T14:57:44;33.17;;;15.23;;
75025;SDS011;63591;50.080;8.286;2022-12-18T15:00:17;30.88;;;14.80;;
75025;SDS011;63591;50.080;8.286;2022-12-18T15:02:46;32.67;;;14.75;;
75025;SDS011;63591;50.080;8.286;2022-12-18T15:05:19;32.35;;;15.00;;
75025;SDS011;63591;50.080;8.286;2022-12-18T15:07:50;29.20;;;14.07;;
75025;SDS011;63591;50.080;8.286;2022-12-18T15:18:01;33.15;;;14.80;;
75025;SDS011;63591;50.080;8.286;2022-12-18T15:20:43;31.73;;;14.35;;
75025;SDS011;63591;50.080;8.286;2022-12-18T15:25:39;32.13;;;14.93;;
75025;SDS011;63591;50.080;8.286;2022-12-18T15:28:15;29.40;;;13.60;;
75025;SDS011;63591;50.080;8.286;2022-12-18T15:36:18;26.63;;;13.45;;
75025;SDS011;63591;50.080;8.286;2022-12-18T15:38:48;30.08;;;13.25;;
75025;SDS011;63591;50.080;8.286;2022-12-18T15:41:15;27.30;;;13.32;;
75025;SDS011;63591;50.080;8.286;2022-12-18T15:43:41;28.88;;;12.85;;
75025;SDS011;63591;50.080;8.286;2022-12-18T15:46:11;30.75;;;14.10;;
75025;SDS011;63591;50.080;8.286;2022-12-18T15:48:42;29.70;;;12.70;;
75025;SDS011;63591;50.080;8.286;2022-12-18T15:53:47;28.33;;;13.23;;
75025;SDS011;63591;50.080;8.286;2022-12-18T15:56:15;26.40;;;12.38;;
75025;SDS011;63591;50.080;8.286;2022-12-18T15:58:59;26.13;;;12.13;;
75025;SDS011;63591;50.080;8.286;2022-12-18T16:01:27;26.90;;;13.30;;
75025;SDS011;63591;50.080;8.286;2022-12-18T16:03:54;26.33;;;12.48;;
75025;SDS011;63591;50.080;8.286;2022-12-18T16:06:20;28.27;;;12.52;;
75025;SDS011;63591;50.080;8.286;2022-12-18T16:08:46;26.45;;;12.57;;
75025;SDS011;63591;50.080;8.286;2022-12-18T16:11:27;28.65;;;12.82;;
75025;SDS011;63591;50.080;8.286;2022-12-18T16:14:17;25.60;;;12.50;;
75025;SDS011;63591;50.080;8.286;2022-12-18T16:16:53;27.77;;;13.00;;
75025;SDS011;63591;50.080;8.286;2022-12-18T16:19:20;28.00;;;12.35;;
75025;SDS011;63591;50.080;8.286;2022-12-18T16:21:47;28.67;;;12.80;;
75025;SDS011;63591;50.080;8.286;2022-12-18T16:24:17;28.40;;;12.55;;
75025;SDS011;63591;50.080;8.286;2022-12-18T16:26:44;27.85;;;12.93;;
75025;SDS011;63591;50.080;8.286;2022-12-18T16:29:10;26.20;;;11.90;;
75025;SDS011;63591;50.080;8.286;2022-12-18T16:31:36;29.30;;;13.07;;
75025;SDS011;63591;50.080;8.286;2022-12-18T16:36:54;23.80;;;11.97;;
75025;SDS011;63591;50.080;8.286;2022-12-18T16:39:20;25.50;;;11.65;;
75025;SDS011;63591;50.080;8.286;2022-12-18T16:41:46;25.50;;;12.05;;